Time;durP1;ratioP1;P1;durP2;ratioP2;P2;SDS_P1;SDS_P2;PMS_P1;PMS_P2;Temp;Humidity;BMP_temperature;BMP_pressure;BME280_temperature;BME280_humidity;BME280_pressure;Samples;Min_cycle;Max_cycle;Signal;HPM_P1;HPM_P2
2022/12/21 00:00:08;;;;;;;1.83;1.33;;;6.30;98.50;;;;;;5022187;28;20660;-51
2022/12/21 00:02:40;;;;;;;1.15;0.77;;;6.30;98.50;;;;;;5027072;28;20225;-50
2022/12/21 00:05:10;;;;;;;1.15;0.93;;;6.30;98.40;;;;;;5030221;28;20217;-50
2022/12/21 00:07:40;;;;;;;1.30;1.10;;;6.30;98.40;;;;;;5028973;28;20225;-50
2022/12/21 00:10:10;;;;;;;1.10;0.73;;;6.30;98.40;;;;;;5028079;28;20213;-51
2022/12/21 00:12:38;;;;;;;2.30;0.90;;;6.30;98.40;;;;;;5036539;28;20255;-50
2022/12/21 00:15:08;;;;;;;1.58;1.00;;;6.30;98.40;;;;;;5041640;28;20611;-51
2022/12/21 00:17:36;;;;;;;1.17;1.00;;;6.30;98.40;;;;;;5025235;28;20221;-51
2022/12/21 00:20:13;;;;;;;1.13;1.00;;;6.30;98.40;;;;;;5021716;28;20193;-50
2022/12/21 00:22:43;;;;;;;1.02;0.98;;;6.30;98.80;;;;;;5037086;28;20228;-52
2022/12/21 00:25:11;;;;;;;1.00;0.90;;;6.30;98.40;;;;;;5041413;28;20303;-50
2022/12/21 00:27:39;;;;;;;0.95;0.75;;;6.30;98.40;;;;;;5030861;28;20236;-51
2022/12/21 00:30:09;;;;;;;0.90;0.82;;;6.30;98.40;;;;;;5015314;28;20194;-51
2022/12/21 00:32:38;;;;;;;0.90;0.90;;;6.30;98.40;;;;;;5022051;28;20735;-52
2022/12/21 00:35:07;;;;;;;1.35;1.15;;;6.40;98.40;;;;;;5022121;28;20221;-51
2022/12/21 00:37:35;;;;;;;1.58;0.98;;;6.30;98.40;;;;;;5026520;28;20253;-51
2022/12/21 00:40:06;;;;;;;1.10;1.00;;;6.40;98.40;;;;;;5027596;28;20543;-50
2022/12/21 00:42:35;;;;;;;1.02;0.98;;;6.40;98.40;;;;;;5026942;28;20217;-49
2022/12/21 00:45:04;;;;;;;1.40;0.98;;;6.40;98.30;;;;;;5024467;28;20224;-49
2022/12/21 00:47:33;;;;;;;1.00;0.90;;;6.40;98.40;;;;;;5026026;28;20321;-53
2022/12/21 00:50:01;;;;;;;1.98;1.20;;;6.40;98.30;;;;;;5007093;28;20690;-51
2022/12/21 00:52:30;;;;;;;1.27;1.17;;;6.40;98.40;;;;;;5007255;28;20528;-50
2022/12/21 00:54:59;;;;;;;1.10;0.80;;;6.40;98.40;;;;;;5008920;28;20221;-50
2022/12/21 00:57:30;;;;;;;1.10;1.00;;;6.40;98.40;;;;;;5017203;28;20245;-50
2022/12/21 00:59:58;;;;;;;1.30;1.20;;;6.40;98.30;;;;;;5017391;28;20596;-51
2022/12/21 01:02:27;;;;;;;0.90;0.85;;;6.40;98.40;;;;;;5012194;28;20217;-49
2022/12/21 01:04:56;;;;;;;1.45;1.23;;;6.40;98.40;;;;;;5015843;28;20305;-51
2022/12/21 01:07:24;;;;;;;0.80;0.80;;;6.40;98.30;;;;;;5020118;28;20267;-51
2022/12/21 01:09:53;;;;;;;0.88;0.85;;;6.40;98.30;;;;;;5033557;28;20216;-51
2022/12/21 01:12:21;;;;;;;2.78;1.02;;;6.40;98.30;;;;;;5026608;28;20602;-49
2022/12/21 01:14:51;;;;;;;1.58;1.05;;;6.40;98.30;;;;;;5026796;28;20217;-51
2022/12/21 01:17:20;;;;;;;1.30;1.20;;;6.40;98.30;;;;;;5026755;28;20308;-51
2022/12/21 01:19:50;;;;;;;0.88;0.73;;;6.40;98.30;;;;;;5026051;28;21042;-50
2022/12/21 01:22:19;;;;;;;1.13;1.00;;;6.40;98.30;;;;;;5026783;28;20235;-49
2022/12/21 01:24:48;;;;;;;1.35;1.25;;;6.40;98.30;;;;;;5025617;28;20245;-50
2022/12/21 01:27:17;;;;;;;1.30;1.20;;;6.40;98.30;;;;;;5025848;28;20252;-50
2022/12/21 01:29:45;;;;;;;1.45;1.00;;;6.40;98.80;;;;;;5027032;28;20563;-50
2022/12/21 01:32:15;;;;;;;0.85;0.50;;;6.40;98.30;;;;;;5026854;28;20704;-53
2022/12/21 01:34:44;;;;;;;1.10;1.00;;;6.40;98.20;;;;;;5027119;28;20217;-50
2022/12/21 01:37:12;;;;;;;1.50;1.05;;;6.40;98.30;;;;;;5026551;28;20376;-49
2022/12/21 01:39:41;;;;;;;1.55;1.13;;;6.40;98.20;;;;;;5028813;28;20209;-50
2022/12/21 01:42:12;;;;;;;0.90;0.80;;;6.40;98.30;;;;;;5021565;28;20322;-50
2022/12/21 01:45:01;;;;;;;1.23;1.00;;;6.40;98.20;;;;;;5007123;28;20221;-50
2022/12/21 01:47:41;;;;;;;0.95;0.77;;;6.40;98.20;;;;;;5021850;28;20256;-52
2022/12/21 01:50:25;;;;;;;1.00;0.90;;;6.40;98.20;;;;;;5027536;28;20193;-51
2022/12/21 01:52:56;;;;;;;0.95;0.80;;;6.40;98.20;;;;;;5026253;28;20270;-50
2022/12/21 01:55:25;;;;;;;0.90;0.90;;;6.40;98.20;;;;;;5026273;28;20266;-51
2022/12/21 01:57:54;;;;;;;0.95;0.80;;;6.40;98.20;;;;;;5025126;28;20267;-52
2022/12/21 02:00:23;;;;;;;1.20;1.05;;;6.40;98.20;;;;;;5026789;28;20217;-50
2022/12/21 02:02:58;;;;;;;1.10;0.80;;;6.40;98.20;;;;;;5025038;28;20244;-50
2022/12/21 02:05:33;;;;;;;1.20;0.90;;;6.40;98.20;;;;;;5026403;28;20580;-49
2022/12/21 02:08:04;;;;;;;1.00;0.90;;;6.40;98.20;;;;;;5026215;28;20220;-51
2022/12/21 02:10:33;;;;;;;1.23;1.00;;;6.40;98.10;;;;;;5032483;28;20208;-50
2022/12/21 02:13:04;;;;;;;1.15;1.00;;;6.50;98.20;;;;;;5008704;28;20402;-51
2022/12/21 02:15:53;;;;;;;1.33;1.13;;;6.50;98.20;;;;;;5010269;28;20225;-50
2022/12/21 02:18:39;;;;;;;1.60;1.10;;;6.40;98.10;;;;;;5006161;28;20543;-50
2022/12/21 02:21:26;;;;;;;0.82;0.80;;;6.40;98.10;;;;;;5007105;28;20684;-51
2022/12/21 02:24:21;;;;;;;0.80;0.75;;;6.50;98.10;;;;;;5007776;28;20677;-50
2022/12/21 02:27:08;;;;;;;0.80;0.80;;;6.40;98.10;;;;;;5021997;28;20225;-50
2022/12/21 02:30:12;;;;;;;0.60;0.55;;;6.50;98.10;;;;;;5006528;28;20253;-49
2022/12/21 02:33:07;;;;;;;0.80;0.80;;;6.50;98.10;;;;;;5000335;28;20342;-49
2022/12/21 02:35:50;;;;;;;0.70;0.70;;;6.50;98.10;;;;;;5020416;28;20585;-52
2022/12/21 02:38:41;;;;;;;1.15;1.00;;;6.50;98.10;;;;;;5025332;28;20221;-51
2022/12/21 02:41:20;;;;;;;1.55;0.80;;;6.40;98.00;;;;;;5026315;28;20704;-52
2022/12/21 02:44:13;;;;;;;1.27;1.17;;;6.50;98.00;;;;;;5023991;28;20201;-50
2022/12/21 02:46:57;;;;;;;0.80;0.68;;;6.50;98.00;;;;;;5017622;28;20238;-53
2022/12/21 02:49:35;;;;;;;1.23;1.00;;;6.50;98.00;;;;;;5006329;28;20285;-50
2022/12/21 02:52:10;;;;;;;0.80;0.80;;;6.50;98.00;;;;;;5006134;28;20267;-50
2022/12/21 02:54:40;;;;;;;0.80;0.65;;;6.50;98.00;;;;;;4998981;28;20241;-49
2022/12/21 02:57:08;;;;;;;1.02;0.93;;;6.50;98.00;;;;;;5016177;28;20595;-50
2022/12/21 02:59:41;;;;;;;0.90;0.90;;;6.50;98.00;;;;;;5025524;28;20213;-51
2022/12/21 03:02:35;;;;;;;0.75;0.75;;;6.50;98.00;;;;;;5025539;28;20189;-52
2022/12/21 03:05:19;;;;;;;1.00;0.88;;;6.50;98.00;;;;;;5039342;28;20224;-50
2022/12/21 03:07:58;;;;;;;1.10;0.80;;;6.50;97.90;;;;;;5008501;28;20222;-51
2022/12/21 03:10:40;;;;;;;2.08;0.80;;;6.50;97.90;;;;;;5005624;28;20281;-49
2022/12/21 03:13:19;;;;;;;1.38;1.27;;;6.50;97.90;;;;;;5011564;28;20217;-52
2022/12/21 03:15:57;;;;;;;1.30;0.90;;;6.50;97.90;;;;;;5006560;28;20224;-51
2022/12/21 03:18:29;;;;;;;1.05;0.95;;;6.50;97.90;;;;;;5024884;28;20315;-50
2022/12/21 03:21:09;;;;;;;0.98;0.60;;;6.50;97.90;;;;;;5026090;28;20270;-51
2022/12/21 03:23:41;;;;;;;1.55;0.80;;;6.50;97.90;;;;;;5016365;28;20200;-50
2022/12/21 03:26:16;;;;;;;0.95;0.65;;;6.50;97.90;;;;;;5026393;28;20209;-50
2022/12/21 03:28:47;;;;;;;0.90;0.80;;;6.50;97.90;;;;;;5025560;28;20204;-50
2022/12/21 03:31:18;;;;;;;1.20;0.98;;;6.50;97.90;;;;;;5025520;28;20188;-50
2022/12/21 03:33:51;;;;;;;1.05;0.80;;;6.50;97.80;;;;;;5033459;28;20193;-50
2022/12/21 03:36:25;;;;;;;1.23;1.10;;;6.50;97.80;;;;;;5025508;28;20221;-51
2022/12/21 03:38:57;;;;;;;1.00;0.80;;;6.50;97.80;;;;;;5023674;28;20743;-50
2022/12/21 03:41:31;;;;;;;0.80;0.70;;;6.50;97.80;;;;;;5018664;28;20221;-50
2022/12/21 03:44:04;;;;;;;0.70;0.60;;;6.50;97.80;;;;;;4998423;28;20205;-51
2022/12/21 03:46:38;;;;;;;0.80;0.75;;;6.50;97.80;;;;;;5005857;28;20348;-50
2022/12/21 03:49:10;;;;;;;1.15;0.80;;;6.50;97.80;;;;;;5015651;28;20200;-51
2022/12/21 03:51:47;;;;;;;1.27;0.70;;;6.50;97.80;;;;;;5011498;28;20229;-50
2022/12/21 03:54:22;;;;;;;1.42;1.00;;;6.50;97.80;;;;;;5029943;28;20279;-50
2022/12/21 03:56:51;;;;;;;1.05;0.90;;;6.50;97.80;;;;;;5026293;28;20197;-51
2022/12/21 03:59:20;;;;;;;1.13;0.60;;;6.50;97.80;;;;;;5026518;28;20209;-51
2022/12/21 04:01:57;;;;;;;0.60;0.60;;;6.50;97.80;;;;;;5016869;28;20222;-50
2022/12/21 04:04:32;;;;;;;0.85;0.80;;;6.60;97.80;;;;;;5011432;28;20213;-50
2022/12/21 04:07:06;;;;;;;0.80;0.70;;;6.50;97.70;;;;;;5022685;28;20213;-51
2022/12/21 04:09:37;;;;;;;0.90;0.80;;;6.50;97.80;;;;;;5025366;28;20677;-50
2022/12/21 04:14:52;;;;;;;1.33;1.05;;;6.60;97.80;;;;;;5025354;28;20259;-50
2022/12/21 04:17:21;;;;;;;1.40;0.98;;;6.60;97.80;;;;;;5019613;28;20218;-51
2022/12/21 04:19:57;;;;;;;1.00;0.90;;;6.60;97.80;;;;;;5026222;28;20228;-51
2022/12/21 04:28:10;;;;;;;0.95;0.85;;;6.60;97.80;;;;;;5023366;28;20232;-52
2022/12/21 04:31:01;;;;;;;1.10;0.65;;;6.60;97.80;;;;;;5041056;28;20186;-51
2022/12/21 04:33:32;;;;;;;0.85;0.82;;;6.60;97.70;;;;;;5006247;28;20205;-51
2022/12/21 04:38:48;;;;;;;1.10;0.70;;;6.60;97.70;;;;;;5013323;28;20209;-51
2022/12/21 04:41:16;;;;;;;0.50;0.45;;;6.60;97.70;;;;;;5025219;28;20217;-51
2022/12/21 04:43:45;;;;;;;1.00;0.70;;;6.60;97.70;;;;;;5040155;28;20632;-53
2022/12/21 04:46:15;;;;;;;1.00;0.73;;;6.60;97.70;;;;;;5011130;28;20224;-50
2022/12/21 04:48:46;;;;;;;1.23;1.02;;;6.60;98.20;;;;;;5028127;28;20693;-51
2022/12/21 04:51:16;;;;;;;1.00;0.80;;;6.60;97.70;;;;;;5028185;28;20182;-51
2022/12/21 04:53:45;;;;;;;1.00;0.50;;;6.60;97.70;;;;;;5026809;28;20246;-49
2022/12/21 04:56:16;;;;;;;1.33;1.00;;;6.60;97.70;;;;;;5035554;28;20213;-50
2022/12/21 04:58:44;;;;;;;2.55;0.70;;;6.80;99.80;;;;;;5020731;28;20677;-51
2022/12/21 05:01:15;;;;;;;1.30;1.17;;;6.60;99.90;;;;;;5026435;28;20279;-51
2022/12/21 05:03:48;;;;;;;0.85;0.63;;;6.70;99.90;;;;;;5024929;28;20216;-51
2022/12/21 05:06:19;;;;;;;1.05;0.73;;;6.60;99.90;;;;;;5027483;28;20216;-50
2022/12/21 05:08:51;;;;;;;0.82;0.60;;;6.60;99.90;;;;;;5028490;28;20228;-50
2022/12/21 05:11:23;;;;;;;0.88;0.82;;;6.70;99.90;;;;;;5029202;28;20302;-50
2022/12/21 05:13:53;;;;;;;1.15;0.75;;;6.60;99.90;;;;;;5029530;28;20284;-50
2022/12/21 05:16:24;;;;;;;1.25;1.15;;;6.60;97.60;;;;;;5029443;28;20209;-50
2022/12/21 05:18:53;;;;;;;0.70;0.70;;;6.60;97.60;;;;;;5033340;28;20205;-51
2022/12/21 05:21:22;;;;;;;0.93;0.70;;;6.60;97.60;;;;;;5025921;28;20234;-51
2022/12/21 05:23:50;;;;;;;0.60;0.50;;;6.60;97.60;;;;;;5012416;28;20323;-50
2022/12/21 05:26:21;;;;;;;0.70;0.70;;;6.60;97.60;;;;;;5014814;28;20206;-49
2022/12/21 05:28:50;;;;;;;0.60;0.60;;;6.60;97.60;;;;;;5041040;28;20228;-51
2022/12/21 05:31:19;;;;;;;0.90;0.70;;;6.60;97.50;;;;;;5024456;28;20190;-50
2022/12/21 05:33:48;;;;;;;1.00;0.80;;;6.60;97.50;;;;;;5040581;28;20202;-51
2022/12/21 05:36:17;;;;;;;1.70;0.90;;;6.60;97.50;;;;;;5027120;28;20235;-51
2022/12/21 05:38:46;;;;;;;0.90;0.90;;;6.60;97.50;;;;;;5041930;28;20221;-51
2022/12/21 05:41:17;;;;;;;0.80;0.80;;;6.60;97.50;;;;;;5026323;28;20209;-50
2022/12/21 05:43:47;;;;;;;1.20;1.00;;;6.60;97.50;;;;;;5042665;28;20225;-49
2022/12/21 05:46:16;;;;;;;0.95;0.77;;;6.60;97.50;;;;;;5042175;28;20237;-51
2022/12/21 05:48:55;;;;;;;1.48;0.80;;;6.60;97.50;;;;;;5027695;28;20247;-50
2022/12/21 05:51:24;;;;;;;0.70;0.60;;;6.60;97.50;;;;;;5018820;28;20782;-50
2022/12/21 05:53:52;;;;;;;1.83;0.90;;;6.60;97.50;;;;;;5027894;28;20930;-51
2022/12/21 05:56:21;;;;;;;0.80;0.80;;;6.60;97.50;;;;;;5030606;28;20239;-50
2022/12/21 05:58:51;;;;;;;1.08;0.70;;;6.60;97.50;;;;;;5026211;28;20324;-50
2022/12/21 06:01:20;;;;;;;1.00;0.60;;;6.60;97.50;;;;;;5026809;28;20209;-50
2022/12/21 06:03:49;;;;;;;0.80;0.65;;;6.60;97.50;;;;;;5019085;28;20199;-51
2022/12/21 06:06:18;;;;;;;0.88;0.77;;;6.60;97.50;;;;;;5025973;28;20213;-50
2022/12/21 06:08:47;;;;;;;1.13;0.73;;;6.60;97.50;;;;;;5025128;28;20211;-51
2022/12/21 06:11:17;;;;;;;0.90;0.75;;;6.60;97.50;;;;;;5026321;28;20213;-52
2022/12/21 06:13:45;;;;;;;1.00;0.75;;;6.60;97.50;;;;;;5026330;28;20231;-50
2022/12/21 06:16:18;;;;;;;0.80;0.80;;;6.70;97.50;;;;;;5026095;28;20213;-51
2022/12/21 06:18:48;;;;;;;1.30;0.63;;;6.70;97.50;;;;;;5025575;28;20213;-50
2022/12/21 06:21:17;;;;;;;0.70;0.70;;;6.70;97.50;;;;;;5025227;28;20224;-52
2022/12/21 06:23:47;;;;;;;0.95;0.85;;;6.60;97.50;;;;;;5009555;28;20252;-51
2022/12/21 06:26:18;;;;;;;0.93;0.70;;;6.60;97.50;;;;;;5031289;28;20209;-51
2022/12/21 06:28:48;;;;;;;0.98;0.85;;;6.60;97.50;;;;;;5025164;28;20508;-50
2022/12/21 06:31:20;;;;;;;0.70;0.63;;;6.70;97.50;;;;;;5025203;28;20696;-52
2022/12/21 06:33:49;;;;;;;0.70;0.70;;;6.70;97.50;;;;;;5025096;28;20201;-49
2022/12/21 06:36:17;;;;;;;0.80;0.65;;;6.70;97.50;;;;;;5024986;28;20249;-51
2022/12/21 06:38:46;;;;;;;0.70;0.60;;;6.70;97.50;;;;;;5026364;28;20197;-50
2022/12/21 06:41:16;;;;;;;2.22;1.00;;;6.70;97.50;;;;;;5031181;28;20189;-50
2022/12/21 06:43:45;;;;;;;1.00;0.63;;;6.70;97.60;;;;;;5026191;28;20201;-52
2022/12/21 06:46:15;;;;;;;0.90;0.63;;;6.70;97.60;;;;;;5025501;28;20692;-51
2022/12/21 06:48:46;;;;;;;1.00;0.90;;;6.70;97.50;;;;;;5025705;28;20189;-50
2022/12/21 06:51:17;;;;;;;0.88;0.70;;;6.70;97.50;;;;;;5017270;28;20619;-51
2022/12/21 06:53:47;;;;;;;1.17;0.70;;;6.70;97.50;;;;;;5031609;28;20201;-51
2022/12/21 06:56:18;;;;;;;0.88;0.70;;;6.70;97.50;;;;;;5026106;28;20697;-50
2022/12/21 06:58:49;;;;;;;1.13;0.75;;;6.70;97.50;;;;;;5025391;28;20255;-50
2022/12/21 07:01:19;;;;;;;0.85;0.73;;;6.70;97.60;;;;;;5025933;28;20665;-50
2022/12/21 07:03:49;;;;;;;1.25;0.80;;;6.70;97.50;;;;;;5025428;28;20702;-53
2022/12/21 07:06:20;;;;;;;0.98;0.73;;;6.70;97.50;;;;;;5023998;28;20221;-50
2022/12/21 07:08:49;;;;;;;1.17;0.80;;;6.70;97.50;;;;;;5025018;28;20197;-50
2022/12/21 07:11:19;;;;;;;0.70;0.57;;;6.70;97.50;;;;;;5025114;28;20306;-51
2022/12/21 07:13:52;;;;;;;0.93;0.60;;;6.70;97.50;;;;;;5022955;28;20202;-51
2022/12/21 07:16:24;;;;;;;1.20;0.80;;;6.70;97.50;;;;;;5026326;28;20213;-52
2022/12/21 07:18:54;;;;;;;1.25;1.15;;;6.70;97.50;;;;;;5025977;28;20680;-52
2022/12/21 07:21:23;;;;;;;0.80;0.50;;;6.70;97.50;;;;;;5024951;28;20224;-51
2022/12/21 07:23:52;;;;;;;0.70;0.70;;;6.70;97.50;;;;;;5024287;28;20217;-52
2022/12/21 07:26:22;;;;;;;0.60;0.60;;;6.70;97.50;;;;;;5025412;28;20296;-52
2022/12/21 07:28:51;;;;;;;0.80;0.55;;;6.70;97.50;;;;;;5025143;28;20315;-51
2022/12/21 07:31:21;;;;;;;0.80;0.68;;;6.70;97.50;;;;;;5016335;28;20305;-50
2022/12/21 07:33:51;;;;;;;1.00;0.60;;;6.70;97.50;;;;;;5024132;28;20204;-50
2022/12/21 07:36:21;;;;;;;1.10;0.70;;;6.70;97.60;;;;;;5024510;28;20912;-50
2022/12/21 07:38:49;;;;;;;0.90;0.68;;;6.70;97.50;;;;;;5025940;28;20328;-51
2022/12/21 07:41:18;;;;;;;0.68;0.68;;;6.70;97.50;;;;;;5030164;28;20228;-51
2022/12/21 07:43:47;;;;;;;0.70;0.50;;;6.70;97.50;;;;;;5008884;28;20228;-51
2022/12/21 07:46:34;;;;;;;0.65;0.60;;;6.70;97.50;;;;;;5009883;28;20201;-49
2022/12/21 07:49:10;;;;;;;0.80;0.60;;;6.70;97.50;;;;;;5008295;28;20198;-51
2022/12/21 07:51:40;;;;;;;0.65;0.45;;;6.70;97.50;;;;;;5007703;28;20225;-49
2022/12/21 07:54:08;;;;;;;0.93;0.70;;;6.70;97.60;;;;;;5009816;28;20260;-50
2022/12/21 07:56:37;;;;;;;0.80;0.70;;;6.70;97.50;;;;;;5013059;28;20321;-49
2022/12/21 07:59:06;;;;;;;0.60;0.50;;;6.70;97.50;;;;;;5009101;28;20217;-50
2022/12/21 08:01:34;;;;;;;0.60;0.47;;;6.70;97.50;;;;;;5007573;28;20280;-51
2022/12/21 08:04:03;;;;;;;0.73;0.60;;;6.70;97.50;;;;;;5008567;28;20213;-50
2022/12/21 08:06:31;;;;;;;1.10;0.75;;;6.80;97.60;;;;;;5009380;28;20225;-50
2022/12/21 08:09:01;;;;;;;0.80;0.60;;;6.80;97.60;;;;;;5005434;28;20198;-50
2022/12/21 08:11:30;;;;;;;0.98;0.63;;;6.70;97.50;;;;;;5009053;28;20267;-51
2022/12/21 08:13:58;;;;;;;1.73;0.85;;;6.80;97.60;;;;;;5000881;28;20240;-50
2022/12/21 08:16:27;;;;;;;0.80;0.60;;;6.80;97.60;;;;;;5012880;28;20224;-50
2022/12/21 08:18:57;;;;;;;0.90;0.70;;;6.80;97.60;;;;;;5028321;28;20201;-51
2022/12/21 08:21:25;;;;;;;0.70;0.70;;;6.80;97.60;;;;;;5029023;28;20193;-50
2022/12/21 08:23:54;;;;;;;1.23;0.60;;;6.80;97.60;;;;;;5028859;28;20224;-52
2022/12/21 08:26:23;;;;;;;1.20;0.70;;;6.80;97.60;;;;;;5028805;28;20492;-49
2022/12/21 08:28:52;;;;;;;0.80;0.60;;;6.80;97.60;;;;;;5028513;28;20197;-50
2022/12/21 08:31:28;;;;;;;1.35;0.75;;;6.80;97.60;;;;;;5023547;28;20721;-49
2022/12/21 08:33:57;;;;;;;0.90;0.60;;;6.80;97.60;;;;;;5020209;28;20201;-50
2022/12/21 08:36:26;;;;;;;1.08;0.85;;;6.80;97.60;;;;;;5008809;28;20276;-50
2022/12/21 08:38:57;;;;;;;1.13;0.90;;;6.70;97.60;;;;;;5009561;28;20198;-51
2022/12/21 08:41:42;;;;;;;0.98;0.70;;;6.80;97.60;;;;;;5010276;28;20229;-50
2022/12/21 08:44:10;;;;;;;0.90;0.63;;;6.80;97.60;;;;;;5008833;28;20222;-50
2022/12/21 08:46:39;;;;;;;0.93;0.50;;;6.80;97.60;;;;;;5008620;28;20202;-51
2022/12/21 08:49:07;;;;;;;0.60;0.57;;;6.80;97.60;;;;;;5011236;28;20198;-50
2022/12/21 08:51:37;;;;;;;0.80;0.60;;;6.80;97.60;;;;;;5007418;28;20668;-49
2022/12/21 08:54:06;;;;;;;0.70;0.70;;;6.80;97.60;;;;;;5004767;28;20190;-49
2022/12/21 08:56:36;;;;;;;0.90;0.85;;;6.80;97.60;;;;;;5021717;28;20695;-50
2022/12/21 08:59:08;;;;;;;0.80;0.52;;;6.80;97.60;;;;;;5008862;28;20190;-50
2022/12/21 09:01:37;;;;;;;0.80;0.50;;;6.80;97.60;;;;;;5006747;28;20229;-50
2022/12/21 09:04:05;;;;;;;0.85;0.85;;;6.80;97.60;;;;;;5008842;28;20206;-50
2022/12/21 09:06:34;;;;;;;1.33;0.70;;;6.80;97.60;;;;;;5008092;28;20681;-50
2022/12/21 09:09:02;;;;;;;0.80;0.70;;;6.80;97.60;;;;;;5004300;28;20198;-51
2022/12/21 09:11:32;;;;;;;1.20;0.80;;;6.80;97.60;;;;;;5005690;28;20228;-50
2022/12/21 09:14:15;;;;;;;0.98;0.70;;;6.80;97.60;;;;;;5009200;28;20214;-50
2022/12/21 09:16:43;;;;;;;1.02;0.90;;;6.80;97.60;;;;;;5005482;28;20264;-49
2022/12/21 09:19:12;;;;;;;0.88;0.88;;;6.80;97.60;;;;;;5010269;28;20198;-50
2022/12/21 09:21:40;;;;;;;1.20;0.85;;;6.80;97.60;;;;;;5008147;28;20198;-49
2022/12/21 09:24:09;;;;;;;1.52;1.13;;;6.80;97.60;;;;;;5010487;28;20224;-50
2022/12/21 09:26:37;;;;;;;1.40;1.30;;;6.80;97.60;;;;;;5009294;28;20285;-50
2022/12/21 09:29:05;;;;;;;0.90;0.90;;;6.80;97.60;;;;;;5006523;28;20551;-50
2022/12/21 09:31:35;;;;;;;1.02;0.93;;;6.80;97.60;;;;;;5006416;28;20204;-50
2022/12/21 09:34:04;;;;;;;1.10;0.95;;;6.80;97.60;;;;;;5012877;28;20317;-49
2022/12/21 09:36:33;;;;;;;1.70;1.00;;;6.80;97.60;;;;;;5006979;28;20222;-50
2022/12/21 09:39:21;;;;;;;1.40;0.90;;;6.80;97.60;;;;;;5008297;28;20290;-50
2022/12/21 09:42:03;;;;;;;1.20;1.10;;;6.90;97.60;;;;;;5005961;28;20224;-50
2022/12/21 09:44:58;;;;;;;1.25;0.98;;;6.80;97.60;;;;;;5006887;28;20705;-50
2022/12/21 09:47:34;;;;;;;2.83;1.20;;;6.80;97.60;;;;;;5006503;28;20225;-50
2022/12/21 09:50:09;;;;;;;1.42;1.13;;;6.90;97.60;;;;;;5014495;28;20190;-50
2022/12/21 09:52:42;;;;;;;1.27;0.90;;;6.90;97.60;;;;;;5005315;28;20221;-50
2022/12/21 09:55:17;;;;;;;1.95;1.50;;;6.90;97.60;;;;;;5012538;28;20326;-50
2022/12/21 09:57:45;;;;;;;1.63;1.15;;;6.90;97.60;;;;;;5005384;28;20218;-50
2022/12/21 10:00:18;;;;;;;2.33;1.13;;;6.90;97.60;;;;;;5006837;28;20198;-50
2022/12/21 10:03:28;;;;;;;1.38;1.10;;;6.90;97.60;;;;;;5019890;28;20217;-50
2022/12/21 10:06:16;;;;;;;1.70;1.40;;;6.90;97.60;;;;;;5023542;28;20257;-51
2022/12/21 10:09:05;;;;;;;1.45;1.35;;;6.90;97.60;;;;;;5024120;28;20500;-51
2022/12/21 10:11:46;;;;;;;2.30;1.60;;;6.90;97.60;;;;;;5027122;28;20228;-50
2022/12/21 10:14:26;;;;;;;1.50;1.40;;;6.90;97.80;;;;;;5026900;28;20277;-49
2022/12/21 10:17:02;;;;;;;2.55;1.50;;;6.90;97.70;;;;;;5017984;28;20217;-50
2022/12/21 10:20:03;;;;;;;1.42;1.30;;;6.90;97.70;;;;;;5006591;28;20202;-49
2022/12/21 10:22:35;;;;;;;2.13;1.45;;;6.90;97.90;;;;;;5006125;28;20576;-51
2022/12/21 10:25:13;;;;;;;2.38;1.80;;;6.90;97.90;;;;;;5012197;28;20245;-51
2022/12/21 10:27:44;;;;;;;2.55;1.30;;;6.90;97.80;;;;;;5011952;28;20222;-50
2022/12/21 10:30:15;;;;;;;3.10;1.63;;;6.90;97.90;;;;;;5006688;28;20190;-50
2022/12/21 10:32:47;;;;;;;2.08;1.10;;;6.90;97.80;;;;;;5005967;28;20768;-49
2022/12/21 10:35:20;;;;;;;2.30;1.48;;;6.90;97.70;;;;;;5017575;28;20213;-49
2022/12/21 10:37:51;;;;;;;2.20;1.27;;;6.90;97.80;;;;;;5016258;28;20905;-50
2022/12/21 10:40:22;;;;;;;1.92;1.35;;;6.90;97.70;;;;;;5025459;28;20730;-51
2022/12/21 10:42:53;;;;;;;1.80;1.70;;;6.90;97.70;;;;;;5025417;28;20353;-51
2022/12/21 10:45:25;;;;;;;2.42;1.77;;;6.90;97.70;;;;;;5025906;28;20236;-49
2022/12/21 10:47:54;;;;;;;3.45;1.77;;;6.90;97.80;;;;;;5028466;28;20218;-51
2022/12/21 10:50:28;;;;;;;2.35;1.23;;;6.90;97.80;;;;;;5032441;28;20555;-49
2022/12/21 10:52:58;;;;;;;2.60;1.88;;;6.90;97.80;;;;;;5017273;28;20283;-49
2022/12/21 10:55:33;;;;;;;2.20;1.90;;;6.90;97.80;;;;;;5033536;28;20209;-50
2022/12/21 10:58:16;;;;;;;2.00;1.90;;;6.90;97.80;;;;;;5017952;28;20235;-50
2022/12/21 11:00:57;;;;;;;1.80;1.20;;;6.90;97.80;;;;;;5026223;28;20199;-50
2022/12/21 11:03:29;;;;;;;2.15;1.40;;;6.90;98.60;;;;;;5028879;28;20248;-53
2022/12/21 11:06:13;;;;;;;2.83;1.90;;;7.00;99.30;;;;;;5017611;28;20217;-53
2022/12/21 11:08:46;;;;;;;1.20;1.10;;;7.00;99.00;;;;;;5022338;28;20327;-54
2022/12/21 11:11:29;;;;;;;1.40;1.17;;;7.00;98.60;;;;;;5030850;28;20320;-51
2022/12/21 11:13:59;;;;;;;1.38;1.23;;;7.00;98.50;;;;;;5025517;28;20196;-52
2022/12/21 11:16:36;;;;;;;1.83;1.30;;;7.00;98.40;;;;;;5024669;28;20244;-52
2022/12/21 11:19:04;;;;;;;1.13;0.95;;;7.00;98.30;;;;;;5025467;28;20540;-51
2022/12/21 11:21:38;;;;;;;1.77;1.45;;;7.00;98.30;;;;;;5024793;28;20192;-52
2022/12/21 11:24:13;;;;;;;1.20;1.10;;;7.00;98.20;;;;;;5025337;28;20216;-52
2022/12/21 11:26:44;;;;;;;1.52;1.35;;;7.00;98.20;;;;;;5026028;28;20264;-50
2022/12/21 11:29:24;;;;;;;3.42;1.48;;;7.00;98.10;;;;;;5023414;28;20753;-53
2022/12/21 11:31:54;;;;;;;1.48;1.23;;;7.00;98.20;;;;;;5025374;28;20559;-51
2022/12/21 11:34:31;;;;;;;1.75;1.20;;;7.00;98.20;;;;;;5026631;28;20276;-53
2022/12/21 11:37:04;;;;;;;1.45;1.33;;;7.00;98.20;;;;;;5026526;28;20654;-51
2022/12/21 11:39:42;;;;;;;4.32;1.90;;;7.00;98.20;;;;;;5023233;28;20288;-50
2022/12/21 11:42:17;;;;;;;1.77;1.67;;;7.00;98.10;;;;;;5024847;28;20335;-50
2022/12/21 11:44:46;;;;;;;1.50;1.38;;;7.00;98.20;;;;;;5025674;28;20339;-53
2022/12/21 11:47:30;;;;;;;2.03;1.45;;;7.00;98.20;;;;;;5027014;28;20217;-52
2022/12/21 11:50:23;;;;;;;1.63;1.35;;;7.00;98.30;;;;;;5020988;28;20193;-50
2022/12/21 11:53:14;;;;;;;1.55;1.30;;;7.00;98.20;;;;;;5024173;28;20221;-51
2022/12/21 11:55:59;;;;;;;1.30;1.00;;;7.00;98.30;;;;;;5025307;28;20712;-51
2022/12/21 11:58:43;;;;;;;2.00;1.75;;;7.00;98.30;;;;;;5024618;28;20264;-51
2022/12/21 12:01:23;;;;;;;1.30;1.20;;;7.00;98.20;;;;;;5022775;28;20587;-51
2022/12/21 12:04:04;;;;;;;2.13;1.73;;;7.00;98.50;;;;;;5025223;28;20201;-54
2022/12/21 12:06:55;;;;;;;1.70;1.40;;;7.00;98.60;;;;;;5018142;28;20225;-53
2022/12/21 12:10:09;;;;;;;3.15;1.38;;;7.10;98.50;;;;;;4981930;28;20263;-52
2022/12/21 12:12:45;;;;;;;2.08;1.30;;;7.10;98.40;;;;;;4999009;28;20312;-51
2022/12/21 12:15:32;;;;;;;1.10;1.00;;;7.10;98.50;;;;;;5017720;28;20217;-52
2022/12/21 12:18:31;;;;;;;2.30;1.40;;;7.10;98.50;;;;;;5014249;28;20293;-51
2022/12/21 12:21:32;;;;;;;1.45;1.27;;;7.10;98.50;;;;;;5014986;28;20193;-51
2022/12/21 12:24:23;;;;;;;1.50;1.40;;;7.10;98.50;;;;;;5023274;28;20655;-53
2022/12/21 12:27:01;;;;;;;1.63;1.35;;;7.10;98.40;;;;;;5024727;28;20193;-50
2022/12/21 12:29:49;;;;;;;1.88;1.40;;;7.10;98.40;;;;;;5025176;28;20201;-50
2022/12/21 12:32:33;;;;;;;1.60;1.25;;;7.10;98.40;;;;;;5038660;28;20217;-53
2022/12/21 12:35:16;;;;;;;1.55;1.20;;;7.10;98.50;;;;;;5030901;28;20738;-51
2022/12/21 12:37:55;;;;;;;3.05;1.40;;;7.10;98.50;;;;;;5012525;28;20221;-54
2022/12/21 12:40:35;;;;;;;1.50;1.20;;;7.10;98.60;;;;;;5015412;28;20276;-52
2022/12/21 12:43:17;;;;;;;1.45;1.20;;;7.10;98.50;;;;;;5007655;28;20224;-52
2022/12/21 12:45:55;;;;;;;2.58;1.10;;;7.10;98.90;;;;;;5006735;28;20217;-54
2022/12/21 12:48:31;;;;;;;3.35;1.60;;;7.20;99.90;;;;;;5005870;28;20245;-51
2022/12/21 12:51:07;;;;;;;1.95;1.33;;;7.30;99.90;;;;;;5020015;28;20561;-51
2022/12/21 12:53:43;;;;;;;3.42;1.42;;;7.50;99.90;;;;;;5019719;28;20633;-51
2022/12/21 12:56:17;;;;;;;1.52;1.30;;;;;;;;;;5019018;28;20225;-54
2022/12/21 12:58:57;;;;;;;1.40;1.00;;;7.50;99.90;;;;;;5022420;28;20194;-53
2022/12/21 13:01:32;;;;;;;3.33;1.10;;;7.50;99.90;;;;;;5009293;28;20304;-52
2022/12/21 13:04:35;;;;;;;2.30;1.30;;;7.50;99.90;;;;;;5026366;28;20225;-51
2022/12/21 13:07:12;;;;;;;1.75;1.10;;;7.50;99.90;;;;;;5036210;28;20201;-53
2022/12/21 13:09:49;;;;;;;2.20;1.40;;;7.50;99.90;;;;;;5026042;28;20193;-53
2022/12/21 13:12:23;;;;;;;2.00;1.60;;;7.40;99.90;;;;;;5016588;28;20989;-52
2022/12/21 13:14:58;;;;;;;2.08;1.30;;;7.50;99.90;;;;;;5018613;28;20221;-54
2022/12/21 13:17:32;;;;;;;2.15;1.52;;;7.50;99.90;;;;;;5005172;28;20596;-52
2022/12/21 13:20:02;;;;;;;4.72;1.80;;;7.50;99.90;;;;;;5001905;28;20225;-52
2022/12/21 13:22:37;;;;;;;1.35;1.15;;;7.40;99.90;;;;;;5029600;28;20237;-52
2022/12/21 13:25:14;;;;;;;2.67;1.10;;;7.40;99.90;;;;;;5026337;28;20762;-54
2022/12/21 13:27:51;;;;;;;1.33;1.23;;;7.40;99.90;;;;;;5025013;28;20225;-51
2022/12/21 13:30:22;;;;;;;2.90;1.35;;;7.40;99.90;;;;;;5021345;28;20194;-52
2022/12/21 13:32:54;;;;;;;1.75;1.15;;;7.40;99.90;;;;;;5025856;28;20632;-51
2022/12/21 13:35:28;;;;;;;4.10;1.48;;;7.40;99.90;;;;;;5023581;28;20302;-52
2022/12/21 13:38:02;;;;;;;2.87;1.37;;;7.40;99.90;;;;;;5026769;28;20221;-53
2022/12/21 13:40:37;;;;;;;2.00;1.25;;;7.40;99.90;;;;;;5030111;28;20462;-56
2022/12/21 13:43:15;;;;;;;1.20;1.05;;;7.30;99.90;;;;;;5024774;28;20759;-55